Latest Weather Observations for Warwick

IDQ60801

Issued at 10:32 pm EST Tuesday 31 March 2015 (issued every 30 minutes, with the page automatically refreshed every 10 minutes)

About weather observations | Map of weather stations | Latest weather observations for QLD | Other Formats
Station Details ID: 041525 Name: WARWICK Lat: -28.21 Lon: 152.10 Height: 475.4 m
Data from the previous 72 hours. | See also: Recent months at Warwick
Date/Time
EST
Temp
°C
App
Temp
°C
Dew
Point
Rel
Hum
%
Delta-T
°C
Wind Press
QNH
hPa
Press
MSL
hPa
Rain
since 9 am
mm
Dir
 
Spd
km/h
Gust
km/h
Spd
kts
Gust
kts
31/10:30pm 16.0 16.2 14.3 90 1.0 SE 6 15 3 8 1023.5 1021.4 0.0
31/10:00pm 15.7 17.0 14.0 90 1.0 CALM 0 0 0 0 1023.7 1021.6 0.0
31/09:30pm 15.9 17.1 13.8 87 1.2 CALM 0 0 0 0 1024.0 1021.8 0.0
31/09:00pm 16.7 16.5 13.6 82 1.8 SE 7 13 4 7 1023.8 1021.7 0.0
31/08:30pm 16.4 17.2 13.8 84 1.5 E 2 7 1 4 1023.7 1021.6 0.0
31/08:00pm 17.0 16.9 13.9 82 1.8 E 7 13 4 7 1023.6 1021.5 0.0
31/07:30pm 17.1 18.1 14.2 83 1.7 E 2 9 1 5 1023.2 1021.1 0.0
31/07:00pm 18.0 17.8 13.7 76 2.5 SE 7 13 4 7 1022.9 1020.8 0.0
31/06:30pm 18.9 19.5 14.3 74 2.7 ESE 4 9 2 5 1022.7 1020.5 0.0
31/06:00pm 19.9 19.9 13.7 67 3.6 ESE 6 11 3 6 1022.2 1020.0 0.0
31/05:30pm 20.5 18.4 14.6 69 3.5 E 19 28 10 15 1021.8 1019.6 0.0
31/05:00pm 21.2 19.1 15.1 68 3.7 ENE 20 33 11 18 1021.8 1019.6 0.0
31/04:30pm 23.8 22.1 13.5 52 6.1 ENE 15 22 8 12 1020.9 1018.8 0.0
31/04:00pm 24.0 22.4 12.9 50 6.5 ENE 13 19 7 10 1020.5 1018.3 0.0
31/03:30pm 24.8 22.7 12.3 45 7.3 NE 15 20 8 11 1020.5 1018.3 0.0
31/03:00pm 25.8 22.8 12.6 44 7.8 NE 20 30 11 16 1020.7 1018.5 0.0
31/02:30pm 25.0 23.3 12.3 45 7.4 ENE 13 20 7 11 1021.1 1019.0 0.0
31/02:00pm 24.0 22.2 12.1 47 6.9 E 13 22 7 12 1021.3 1019.2 0.0
31/01:30pm 24.1 21.6 11.1 44 7.4 NNE 15 20 8 11 1021.7 1019.5 0.0
31/01:00pm 24.7 22.4 11.9 44 7.4 ENE 15 22 8 12 1022.0 1019.8 0.0
31/12:30pm 25.1 23.4 12.5 45 7.4 ENE 13 24 7 13 1022.3 1020.1 0.0
31/12:00pm 25.4 23.1 11.8 42 7.9 ENE 15 26 8 14 1022.7 1020.5 0.0
31/11:30am 23.7 22.4 13.6 53 6.0 ENE 13 19 7 10 1023.4 1021.3 0.0
31/11:00am 23.2 21.5 12.3 50 6.3 ENE 13 22 7 12 1023.8 1021.7 0.0
31/10:30am 22.9 22.3 13.6 55 5.5 ESE 9 17 5 9 1024.1 1021.9 0.0
31/10:00am 22.1 21.5 13.6 58 5.0 E 9 19 5 10 1024.3 1022.1 0.0
31/09:30am 21.1 21.3 14.7 67 3.8 ESE 7 17 4 9 1024.5 1022.3 0.0
31/09:00am 20.7 20.9 14.8 69 3.5 SE 7 15 4 8 1024.5 1022.3 0.0
31/08:30am 19.6 20.1 15.6 78 2.4 SE 7 13 4 7 1024.4 1022.2 0.0
31/08:00am 18.6 19.5 16.0 85 1.6 ESE 6 11 3 6 1024.2 1022.0 0.0
31/07:30am 18.3 19.2 16.0 86 1.4 SE 6 11 3 6 1023.8 1021.7 0.0
31/07:00am 18.1 20.1 16.1 88 1.2 CALM 0 0 0 0 1023.5 1021.4 0.0
31/06:30am 17.5 19.5 16.0 91 0.9 CALM 0 0 0 0 1023.5 1021.4 0.0
31/06:00am 17.2 19.0 15.5 90 1.0 CALM 0 0 0 0 1022.9 1020.8 0.0
31/05:30am 17.5 19.3 15.5 88 1.2 CALM 0 0 0 0 1022.5 1020.3 0.0
31/05:00am 17.7 19.4 15.2 85 1.5 CALM 0 0 0 0 1022.3 1020.1 0.0
31/04:30am 17.8 19.6 15.5 86 1.4 CALM 0 0 0 0 1022.4 1020.2 0.0
31/04:00am 18.0 19.8 15.5 85 1.5 CALM 0 0 0 0 1022.2 1020.0 0.0
31/03:30am 18.0 19.4 15.5 85 1.5 E 2 7 1 4 1022.0 1019.8 0.0
31/03:00am 18.3 20.1 15.6 84 1.6 CALM 0 0 0 0 1022.5 1020.3 0.0
31/02:30am 18.5 20.3 15.5 83 1.8 CALM 0 0 0 0 1022.7 1020.5 0.0
31/02:00am 18.6 20.4 15.4 81 1.9 CALM 0 0 0 0 1023.0 1020.9 0.0
31/01:30am 18.6 20.4 15.4 81 1.9 CALM 0 0 0 0 1023.3 1021.2 0.0
31/01:00am 18.7 19.2 15.5 81 1.9 E 7 11 4 6 1023.7 1021.6 0.0
31/12:30am 19.1 19.1 15.3 78 2.3 ENE 9 15 5 8 1024.0 1021.8 0.0
 
Date/Time
EST
Temp
°C
App
Temp
°C
Dew
Point
Rel
Hum
%
Delta-T
°C
Wind Press
QNH
hPa
Press
MSL
hPa
Rain
since 9 am
mm
Dir
 
Spd
km/h
Gust
km/h
Spd
kts
Gust
kts
30/11:30pm 19.2 19.2 15.2 77 2.4 ENE 9 15 5 8 1024.0 1021.8 0.0
30/11:00pm 19.3 18.9 15.1 76 2.5 E 11 15 6 8 1024.2 1022.0 0.0
30/10:30pm 19.4 19.9 14.9 75 2.7 ENE 6 9 3 5 1024.4 1022.2 0.0
30/10:00pm 19.6 20.2 15.3 76 2.6 E 6 11 3 6 1024.5 1022.3 0.0
30/09:30pm 19.8 19.0 15.1 74 2.8 NE 13 19 7 10 1024.4 1022.2 0.0
30/09:00pm 20.0 18.8 15.0 73 3.0 NE 15 20 8 11 1024.4 1022.2 0.0
30/08:30pm 20.2 18.9 15.7 75 2.7 NNE 17 20 9 11 1024.3 1022.1 0.0
30/08:00pm 20.5 19.2 15.9 75 2.8 NE 17 20 9 11 1024.0 1021.8 0.0
30/07:30pm 20.7 19.8 15.9 74 2.9 NE 15 19 8 10 1023.7 1021.6 0.0
30/07:00pm 20.8 20.4 16.2 75 2.8 NE 13 17 7 9 1023.3 1021.2 0.0
30/06:30pm 21.1 21.1 16.2 73 3.0 NE 11 15 6 8 1022.9 1020.8 0.0
30/06:00pm 21.9 21.4 16.0 69 3.6 NE 13 19 7 10 1022.6 1020.4 0.0
30/05:30pm 22.6 22.5 15.9 66 4.1 NNE 11 15 6 8 1022.4 1020.2 0.0
30/05:00pm 23.2 22.8 15.3 61 4.8 NNE 11 17 6 9 1022.2 1020.0 0.0
30/04:30pm 23.7 22.6 15.2 59 5.2 NNE 15 22 8 12 1022.0 1019.8 0.0
30/04:00pm 23.9 22.2 14.6 56 5.6 NNE 17 20 9 11 1021.7 1019.5 0.0
30/03:30pm 23.9 22.6 13.8 53 6.0 NNE 13 17 7 9 1021.5 1019.4 0.0
30/03:00pm 24.6 22.9 13.7 50 6.5 NNE 15 20 8 11 1021.4 1019.3 0.0
30/02:30pm 24.2 22.8 14.6 55 5.8 NE 15 22 8 12 1021.7 1019.5 0.0
30/02:00pm 24.5 22.5 15.0 55 5.8 NE 19 22 10 12 1022.0 1019.8 0.0
30/01:30pm 23.9 22.5 14.6 56 5.6 NE 15 20 8 11 1022.3 1020.1 0.0
30/01:00pm 23.8 23.7 14.9 57 5.4 N 9 19 5 10 1022.8 1020.7 0.0
30/12:30pm 23.5 22.5 14.7 57 5.3 NE 13 20 7 11 1023.0 1020.9 0.0
30/12:00pm 23.4 22.0 14.4 57 5.4 NE 15 20 8 11 1023.4 1021.3 0.0
30/11:30am 23.1 21.2 14.2 57 5.3 NE 17 24 9 13 1023.8 1021.7 0.0
30/11:00am 22.8 21.8 14.5 59 5.0 ENE 13 20 7 11 1024.6 1022.4 0.0
30/10:30am 22.6 21.7 14.8 61 4.7 NE 13 20 7 11 1024.9 1022.8 0.0
30/10:00am 22.0 21.6 15.2 65 4.1 NE 11 17 6 9 1025.0 1022.9 0.0
30/09:30am 21.4 23.5 16.2 72 3.2 CALM 0 6 0 3 1025.4 1023.3 0.0
30/09:00am 20.8 22.7 16.6 77 2.6 NE 2 7 1 4 1025.1 1023.0 0.0
30/08:30am 19.1 21.1 16.0 82 1.9 CALM 0 0 0 0 1025.2 1023.1 0.0
30/08:00am 18.6 20.7 16.3 86 1.4 CALM 0 0 0 0 1025.0 1022.9 0.0
30/07:30am 16.8 18.1 15.1 90 1.0 SW 2 9 1 5 1024.8 1022.7 0.0
30/07:00am 16.3 17.2 15.1 93 0.7 W 4 7 2 4 1024.4 1022.2 0.0
30/06:30am 15.7 17.2 14.7 94 0.6 CALM 0 4 0 2 1024.0 1021.8 0.0
30/06:00am 15.5 15.2 14.5 94 0.6 NE 9 13 5 7 1023.4 1021.3 0.0
30/05:30am 15.3 15.4 14.4 94 0.5 NE 7 9 4 5 1023.3 1021.2 0.0
30/05:00am 15.9 17.4 14.7 93 0.7 CALM 0 0 0 0 1023.2 1021.1 0.0
30/04:30am 15.9 17.5 14.9 94 0.6 CALM 0 0 0 0 1022.9 1020.8 0.0
30/04:00am 15.8 17.0 14.8 94 0.6 WSW 2 7 1 4 1022.5 1020.3 0.0
30/03:30am 15.7 17.2 14.7 94 0.6 CALM 0 0 0 0 1022.4 1020.2 0.0
30/03:00am 16.1 17.6 14.6 91 0.9 CALM 0 0 0 0 1022.5 1020.3 0.0
30/02:30am 16.6 18.3 15.1 91 0.9 CALM 0 0 0 0 1022.5 1020.3 0.0
30/02:00am 17.0 18.6 14.8 87 1.3 CALM 0 0 0 0 1022.6 1020.4 0.0
30/01:30am 16.7 17.8 14.7 88 1.2 NE 2 7 1 4 1022.7 1020.5 0.0
30/01:00am 16.8 18.3 14.6 87 1.3 CALM 0 6 0 3 1023.1 1021.0 0.0
30/12:30am 17.3 19.0 15.1 87 1.3 CALM 0 6 0 3 1023.1 1021.0 0.0
30/12:00am 17.6 19.3 15.1 85 1.5 CALM 0 0 0 0 1023.3 1021.2 0.0
 
Date/Time
EST
Temp
°C
App
Temp
°C
Dew
Point
Rel
Hum
%
Delta-T
°C
Wind Press
QNH
hPa
Press
MSL
hPa
Rain
since 9 am
mm
Dir
 
Spd
km/h
Gust
km/h
Spd
kts
Gust
kts
29/11:30pm 17.9 18.7 14.9 82 1.8 NNE 4 11 2 6 1023.3 1021.2 0.0
29/11:00pm 18.0 19.8 15.5 85 1.5 CALM 0 0 0 0 1023.7 1021.6 0.0
29/10:30pm 18.8 20.5 15.3 80 2.1 CALM 0 0 0 0 1023.6 1021.5 0.0
29/10:00pm 19.2 19.3 15.5 79 2.2 ENE 9 19 5 10 1023.5 1021.4 0.0
29/09:30pm 19.6 19.7 15.6 78 2.4 ENE 9 17 5 9 1023.4 1021.3 0.0
29/09:00pm 19.6 19.8 15.8 79 2.3 ENE 9 13 5 7 1023.5 1021.4 0.0
29/08:30pm 20.1 18.8 15.8 76 2.6 NE 17 20 9 11 1023.3 1021.2 0.0
29/08:00pm 20.4 19.2 16.0 76 2.7 NE 17 24 9 13 1023.2 1021.1 0.0
29/07:30pm 21.0 20.0 15.7 71 3.2 NE 15 20 8 11 1023.0 1020.9 0.0
29/07:00pm 21.6 21.1 15.9 70 3.5 NE 13 17 7 9 1022.7 1020.5 0.0
29/06:30pm 22.3 21.8 15.8 66 4.0 ENE 13 17 7 9 1022.1 1019.9 0.0
29/06:00pm 23.2 22.0 15.1 60 4.9 NE 15 20 8 11 1021.7 1019.5 0.0
29/05:30pm 24.7 22.4 14.6 53 6.1 NE 20 28 11 15 1021.2 1019.1 0.0
29/05:00pm 25.6 23.4 15.0 52 6.5 NE 20 26 11 14 1020.9 1018.8 0.0
29/04:30pm 27.3 26.2 10.6 35 9.6 NNE 7 11 4 6 1020.7 1018.5 0.0
29/04:00pm 27.6 26.6 12.2 38 9.1 NNW 9 17 5 9 1020.7 1018.5 0.0
29/03:30pm 27.6 27.8 11.9 37 9.2 SW 2 11 1 6 1020.8 1018.6 0.0
29/03:00pm 27.9 27.0 12.6 38 9.1 WNW 9 17 5 9 1021.0 1018.9 0.0
29/02:30pm 27.8 26.2 11.5 36 9.5 W 11 17 6 9 1021.0 1018.9 0.0
29/02:00pm 27.8 28.3 12.7 39 9.0 NNE 2 11 1 6 1021.4 1019.3 0.0
29/01:30pm 26.7 25.9 11.8 39 8.7 SE 7 13 4 7 1021.8 1019.6 0.0
29/01:00pm 26.8 27.3 13.9 45 7.8 ENE 4 11 2 6 1022.1 1019.9 0.0
29/12:30pm 26.8 26.9 13.9 45 7.8 SE 6 11 3 6 1022.5 1020.3 0.0
29/12:00pm 26.1 26.2 14.4 48 7.1 NE 7 11 4 6 1023.0 1020.9 0.0
29/11:30am 25.4 25.1 14.5 51 6.6 NE 9 17 5 9 1023.4 1021.3 0.0
29/11:00am 24.2 26.0 15.4 58 5.4 CALM 0 0 0 0 1024.0 1021.8 0.0
29/10:30am 24.7 24.5 14.8 54 6.0 E 9 15 5 8 1024.2 1022.0 0.0
29/10:00am 24.1 24.2 15.6 59 5.2 ESE 9 19 5 10 1024.5 1022.3 0.0
29/09:30am 22.9 23.7 15.9 64 4.3 SE 6 11 3 6 1024.9 1022.8 0.0
29/09:00am 21.7 22.6 16.0 70 3.5 ENE 6 9 3 5 1024.8 1022.7 0.0
29/08:30am 21.3 23.2 16.6 74 2.9 ESE 2 7 1 4 1024.7 1022.6 0.0
29/08:00am 20.0 21.5 16.6 81 2.1 SE 4 7 2 4 1024.3 1022.1 0.0
29/07:30am 18.7 20.9 16.4 86 1.4 CALM 0 0 0 0 1023.8 1021.7 0.0
29/07:00am 18.7 20.9 16.4 86 1.4 CALM 0 0 0 0 1023.3 1021.2 0.0
29/06:30am 17.6 19.8 16.4 93 0.7 CALM 0 0 0 0 1023.0 1020.9 0.0
29/06:00am 17.5 19.6 16.3 93 0.7 CALM 0 0 0 0 1022.6 1020.4 0.0
29/05:30am 18.0 20.0 16.0 88 1.2 CALM 0 0 0 0 1022.3 1020.1 0.0
29/05:00am 17.8 19.8 16.0 89 1.1 CALM 0 0 0 0 1022.0 1019.8 0.0
29/04:30am 17.5 19.6 16.3 93 0.7 CALM 0 0 0 0 1021.7 1019.5 0.0
29/04:00am 17.8 19.8 16.0 89 1.1 CALM 0 0 0 0 1021.3 1019.2 0.0
29/03:30am 17.3 19.3 16.1 93 0.7 CALM 0 0 0 0 1021.4 1019.3 0.0
29/03:00am 17.2 19.2 16.0 93 0.7 CALM 0 0 0 0 1021.3 1019.2 0.0
29/02:30am 16.5 18.2 15.3 93 0.7 CALM 0 0 0 0 1021.3 1019.2 0.0
29/02:00am 16.1 17.9 15.4 96 0.4 CALM 0 0 0 0 1021.4 1019.3 0.0
29/01:30am 16.1 17.8 15.1 94 0.6 CALM 0 0 0 0 1021.8 1019.6 0.0
29/01:00am 16.7 18.4 15.2 91 0.9 CALM 0 7 0 4 1022.0 1019.8 0.0
29/12:30am 16.8 18.6 15.6 93 0.7 CALM 0 0 0 0 1022.2 1020.0 0.0
29/12:00am 17.7 19.6 15.7 88 1.2 CALM 0 0 0 0 1022.1 1019.9 0.0
 
Date/Time
EST
Temp
°C
App
Temp
°C
Dew
Point
Rel
Hum
%
Delta-T
°C
Wind Press
QNH
hPa
Press
MSL
hPa
Rain
since 9 am
mm
Dir
 
Spd
km/h
Gust
km/h
Spd
kts
Gust
kts
28/11:30pm 18.4 20.3 15.7 84 1.6 CALM 0 0 0 0 1022.1 1019.9 0.0
28/11:00pm 18.4 18.5 15.6 84 1.7 NE 9 11 5 6 1022.3 1020.1 0.0

Other Formats:

Comma delimited format used in spreadsheet applications
http://www.bom.gov.au/fwo/IDQ60801/IDQ60801.94555.axf

JavaScript Object Notation format (JSON) in row-major order
http://www.bom.gov.au/fwo/IDQ60801/IDQ60801.94555.json